createdAt,value
2019-02-21T00:01:05.790Z,21.50
2019-02-21T00:03:36.150Z,25.57
2019-02-21T00:06:05.981Z,22.03
2019-02-21T00:08:36.869Z,22.23
2019-02-21T00:11:06.560Z,23.37
2019-02-21T00:13:36.217Z,20.90
2019-02-21T00:16:05.901Z,20.47
2019-02-21T00:18:35.787Z,21.73
2019-02-21T00:21:05.581Z,21.17
2019-02-21T00:23:35.242Z,22.33
2019-02-21T00:26:05.085Z,20.10
2019-02-21T00:28:34.987Z,22.30
2019-02-21T00:31:05.020Z,22.27
2019-02-21T00:33:34.717Z,24.07
2019-02-21T00:38:48.479Z,22.90
2019-02-21T00:41:18.257Z,21.47
2019-02-21T00:43:47.967Z,22.17
2019-02-21T00:46:17.932Z,22.90
2019-02-21T00:48:47.601Z,23.83
2019-02-21T00:51:17.354Z,24.77
2019-02-21T00:53:46.951Z,24.50
2019-02-21T00:56:17.198Z,25.07
2019-02-21T00:58:46.869Z,24.13
2019-02-21T01:01:16.585Z,26.97
2019-02-21T01:03:46.332Z,24.13
2019-02-21T01:06:16.101Z,22.42
2019-02-21T01:08:47.414Z,26.33
2019-02-21T01:11:17.105Z,25.53
2019-02-21T01:13:47.094Z,26.47
2019-02-21T01:16:16.843Z,25.15
2019-02-21T01:18:47.749Z,22.80
2019-02-21T01:21:17.490Z,28.05
2019-02-21T01:23:47.302Z,25.62
2019-02-21T01:26:17.038Z,23.33
2019-02-21T01:28:46.823Z,23.90
2019-02-21T01:31:16.617Z,24.93
2019-02-21T01:33:46.426Z,26.67
2019-02-21T01:36:16.098Z,25.80
2019-02-21T01:38:46.185Z,27.03
2019-02-21T01:41:16.109Z,22.77
2019-02-21T01:43:46.416Z,25.03
2019-02-21T01:46:16.179Z,25.60
2019-02-21T01:48:46.255Z,25.50
2019-02-21T01:51:15.959Z,26.90
2019-02-21T01:53:45.705Z,27.93
2019-02-21T01:56:15.346Z,23.67
2019-02-21T01:58:45.634Z,25.00
2019-02-21T02:01:15.311Z,24.23
2019-02-21T02:03:45.289Z,25.13
2019-02-21T02:06:15.234Z,27.77
2019-02-21T02:08:45.050Z,25.33
2019-02-21T02:11:14.782Z,31.90
2019-02-21T02:13:44.760Z,24.33
2019-02-21T02:16:14.856Z,24.05
2019-02-21T02:18:44.968Z,25.73
2019-02-21T02:21:14.715Z,28.45
2019-02-21T02:23:44.391Z,30.23
2019-02-21T02:26:14.078Z,27.83
2019-02-21T02:28:44.036Z,25.87
2019-02-21T02:31:22.649Z,31.03
2019-02-21T02:33:45.441Z,26.53
2019-02-21T02:36:15.100Z,26.83
2019-02-21T02:38:45.699Z,26.03
2019-02-21T02:41:15.595Z,25.77
2019-02-21T02:43:45.567Z,25.40
2019-02-21T02:46:16.198Z,27.23
2019-02-21T02:48:45.889Z,30.07
2019-02-21T02:51:15.557Z,27.37
2019-02-21T02:53:45.356Z,26.20
2019-02-21T02:56:15.074Z,29.52
2019-02-21T02:58:45.716Z,26.33
2019-02-21T03:01:15.852Z,29.57
2019-02-21T03:03:45.541Z,28.63
2019-02-21T03:06:15.245Z,24.70
2019-02-21T03:08:44.935Z,32.40
2019-02-21T03:11:14.732Z,27.27
2019-02-21T03:13:44.635Z,25.23
2019-02-21T03:16:14.387Z,28.05
2019-02-21T03:18:44.072Z,24.00
2019-02-21T03:21:13.767Z,29.50
2019-02-21T03:23:43.437Z,27.10
2019-02-21T03:26:13.783Z,25.70
2019-02-21T03:28:43.491Z,31.03
2019-02-21T03:31:13.168Z,29.75
2019-02-21T03:33:42.851Z,30.43
2019-02-21T03:36:12.523Z,26.35
2019-02-21T03:38:42.287Z,28.73
2019-02-21T03:41:12.795Z,31.27
2019-02-21T03:43:42.695Z,29.53
2019-02-21T03:46:12.489Z,31.12
2019-02-21T03:48:42.175Z,29.93
2019-02-21T03:51:11.854Z,28.67
2019-02-21T03:53:42.102Z,28.57
2019-02-21T03:56:12.010Z,34.43
2019-02-21T03:58:42.042Z,36.50
2019-02-21T04:01:11.709Z,32.05
2019-02-21T04:03:41.520Z,32.17
2019-02-21T04:06:11.240Z,32.03
2019-02-21T04:08:40.964Z,31.87
2019-02-21T04:11:10.646Z,31.17
2019-02-21T04:13:40.460Z,39.13
2019-02-21T04:16:10.128Z,33.10
2019-02-21T04:18:40.196Z,31.17
2019-02-21T04:21:09.862Z,31.57
2019-02-21T04:23:39.532Z,33.73
2019-02-21T04:26:09.210Z,31.13
2019-02-21T04:28:39.842Z,32.67
2019-02-21T04:31:09.605Z,34.87
2019-02-21T04:33:39.270Z,32.30
2019-02-21T04:36:08.963Z,35.88
2019-02-21T04:38:39.059Z,30.70
2019-02-21T04:41:08.754Z,34.80
2019-02-21T04:43:38.411Z,36.10
2019-02-21T04:46:08.894Z,34.77
2019-02-21T04:48:38.630Z,31.83
2019-02-21T04:51:08.343Z,32.57
2019-02-21T04:53:38.259Z,38.37
2019-02-21T04:56:08.241Z,35.50
2019-02-21T04:58:38.093Z,32.73
2019-02-21T05:01:07.792Z,34.83
2019-02-21T05:03:37.905Z,37.63
2019-02-21T05:06:07.922Z,36.80
2019-02-21T05:08:37.903Z,38.50
2019-02-21T05:11:07.568Z,39.47
2019-02-21T05:13:37.244Z,35.63
2019-02-21T05:16:07.138Z,40.30
2019-02-21T05:18:37.087Z,38.87
2019-02-21T05:21:06.757Z,41.87
2019-02-21T05:23:36.969Z,43.83
2019-02-21T05:26:09.435Z,43.47
2019-02-21T05:28:41.286Z,42.57
2019-02-21T05:31:32.821Z,46.75
2019-02-21T05:34:10.263Z,41.50
2019-02-21T05:37:01.726Z,44.58
2019-02-21T05:39:37.731Z,44.67
2019-02-21T05:42:32.443Z,44.73
2019-02-21T05:45:20.790Z,44.57
2019-02-21T05:48:12.882Z,41.70
2019-02-21T05:50:50.492Z,47.30
2019-02-21T05:53:33.816Z,48.42
2019-02-21T05:56:20.102Z,47.80
2019-02-21T05:59:08.821Z,45.50
2019-02-21T06:01:56.252Z,44.53
2019-02-21T06:04:39.419Z,45.13
2019-02-21T06:07:31.105Z,47.63
2019-02-21T06:10:16.742Z,41.00
2019-02-21T06:13:05.724Z,46.93
2019-02-21T06:15:41.707Z,45.00
2019-02-21T06:18:29.170Z,44.00
2019-02-21T06:21:16.212Z,43.50
2019-02-21T06:24:13.939Z,50.50
2019-02-21T06:27:06.325Z,45.00
2019-02-21T06:29:51.194Z,44.60
2019-02-21T06:32:20.865Z,42.30
2019-02-21T06:34:52.396Z,44.30
2019-02-21T06:37:22.193Z,42.53
2019-02-21T06:39:51.877Z,44.17
2019-02-21T06:42:21.551Z,44.48
2019-02-21T06:44:51.242Z,45.07
2019-02-21T06:47:20.918Z,43.73
2019-02-21T06:49:50.656Z,46.97
2019-02-21T06:52:20.343Z,47.07
2019-02-21T06:54:50.052Z,45.70
2019-02-21T06:57:19.719Z,41.63
2019-02-21T06:59:49.632Z,43.67
2019-02-21T07:02:19.316Z,41.20
2019-02-21T07:04:48.982Z,41.57
2019-02-21T07:07:19.003Z,41.07
2019-02-21T07:09:48.811Z,43.40
2019-02-21T07:12:18.620Z,43.30
2019-02-21T07:14:48.226Z,43.97
2019-02-21T07:17:18.169Z,43.17
2019-02-21T07:19:47.842Z,41.00
2019-02-21T07:22:20.061Z,44.07
2019-02-21T07:24:53.940Z,42.23
2019-02-21T07:27:23.167Z,40.77
2019-02-21T07:29:52.861Z,42.20
2019-02-21T07:32:22.532Z,42.40
2019-02-21T07:34:52.360Z,42.40
2019-02-21T07:37:22.041Z,45.20
2019-02-21T07:39:52.910Z,44.70
2019-02-21T07:42:22.596Z,40.53
2019-02-21T07:44:52.558Z,47.70
2019-02-21T07:47:22.347Z,43.23
2019-02-21T07:49:52.018Z,42.23
2019-02-21T07:52:21.714Z,45.40
2019-02-21T07:55:01.341Z,43.47
2019-02-21T07:57:22.763Z,42.17
2019-02-21T07:59:52.440Z,47.03
2019-02-21T08:02:22.206Z,45.88
2019-02-21T08:04:51.883Z,45.40
2019-02-21T08:07:21.570Z,49.53
2019-02-21T08:09:51.796Z,45.73
2019-02-21T08:12:23.256Z,47.97
2019-02-21T08:14:56.168Z,49.53
2019-02-21T08:17:24.653Z,47.57
2019-02-21T08:19:54.332Z,50.43
2019-02-21T08:22:24.156Z,45.08
2019-02-21T08:24:56.495Z,48.27
2019-02-21T08:27:25.469Z,47.27
2019-02-21T08:29:55.171Z,48.17
2019-02-21T08:32:31.459Z,43.33
2019-02-21T08:35:01.137Z,48.07
2019-02-21T08:37:31.524Z,49.10
2019-02-21T08:40:01.189Z,47.70
2019-02-21T08:42:31.153Z,49.60
2019-02-21T08:45:00.823Z,49.20
2019-02-21T08:47:31.477Z,46.27
2019-02-21T08:50:01.181Z,52.00
2019-02-21T08:52:30.945Z,47.13
2019-02-21T08:55:00.978Z,47.37
2019-02-21T08:57:31.166Z,49.43
2019-02-21T09:00:01.074Z,47.07
2019-02-21T09:02:31.145Z,44.20
2019-02-21T09:05:00.845Z,49.98
2019-02-21T09:07:30.671Z,50.17
2019-02-21T09:10:00.400Z,50.20
2019-02-21T09:12:30.073Z,49.83
2019-02-21T09:14:59.743Z,52.03
2019-02-21T09:17:40.654Z,49.93
2019-02-21T09:20:11.536Z,49.30
2019-02-21T09:22:41.318Z,45.23
2019-02-21T09:25:12.112Z,53.20
2019-02-21T09:27:42.669Z,50.60
2019-02-21T09:30:16.735Z,47.70
2019-02-21T09:32:46.842Z,49.07
2019-02-21T09:35:16.661Z,53.20
2019-02-21T09:37:46.523Z,45.50
2019-02-21T09:40:16.276Z,49.08
2019-02-21T09:42:46.241Z,47.70
2019-02-21T09:45:16.906Z,46.23
2019-02-21T09:47:46.623Z,46.23
2019-02-21T09:50:17.044Z,49.87
2019-02-21T09:52:47.362Z,46.87
2019-02-21T09:55:17.540Z,50.53
2019-02-21T09:57:47.235Z,47.97
2019-02-21T10:00:18.729Z,47.40
2019-02-21T10:02:48.774Z,46.03
2019-02-21T10:05:18.498Z,47.47
2019-02-21T10:07:48.215Z,46.17
2019-02-21T10:10:18.177Z,46.70
2019-02-21T10:12:47.938Z,45.40
2019-02-21T10:15:18.024Z,47.17
2019-02-21T10:17:47.721Z,48.87
2019-02-21T10:20:18.603Z,43.03
2019-02-21T10:22:48.456Z,47.57
2019-02-21T10:25:22.995Z,50.15
2019-02-21T10:27:51.895Z,51.02
2019-02-21T10:30:22.822Z,52.73
2019-02-21T10:32:52.624Z,56.07
2019-02-21T10:35:22.298Z,49.08
2019-02-21T10:37:51.997Z,59.03
2019-02-21T10:40:21.814Z,59.73
2019-02-21T10:42:51.559Z,63.63
2019-02-21T10:45:21.402Z,57.87
2019-02-21T10:47:51.598Z,58.30
2019-02-21T10:50:21.477Z,56.53
2019-02-21T10:52:51.238Z,61.63
2019-02-21T10:55:21.131Z,62.53
2019-02-21T10:57:50.812Z,62.43
2019-02-21T11:00:23.545Z,64.87
2019-02-21T11:02:53.390Z,65.27
2019-02-21T11:05:23.371Z,62.80
2019-02-21T11:07:53.338Z,64.77
2019-02-21T11:10:24.635Z,65.35
2019-02-21T11:12:54.329Z,60.43
2019-02-21T11:15:24.490Z,54.43
2019-02-21T11:17:54.350Z,61.93
2019-02-21T11:20:24.146Z,60.30
2019-02-21T11:22:53.913Z,57.43
2019-02-21T11:25:23.839Z,53.53
2019-02-21T11:27:53.514Z,57.20
2019-02-21T11:30:23.463Z,53.73
2019-02-21T11:32:53.155Z,51.60
2019-02-21T11:35:22.839Z,48.78
2019-02-21T11:37:52.840Z,53.03
2019-02-21T11:40:22.737Z,52.73
2019-02-21T11:42:52.418Z,47.50
2019-02-21T11:45:22.176Z,48.63
2019-02-21T11:47:51.846Z,45.60
2019-02-21T11:50:21.722Z,40.90
2019-02-21T11:52:51.392Z,43.30
2019-02-21T11:55:22.006Z,45.20
2019-02-21T11:57:51.914Z,44.77
2019-02-21T12:00:23.592Z,48.97
2019-02-21T12:02:53.345Z,51.03
2019-02-21T12:05:30.348Z,46.17
2019-02-21T12:07:55.618Z,46.50
2019-02-21T12:10:25.438Z,44.50
2019-02-21T12:12:56.070Z,46.00
2019-02-21T12:15:25.959Z,42.10
2019-02-21T12:17:55.621Z,43.73
2019-02-21T12:20:26.510Z,41.27
2019-02-21T12:22:56.261Z,46.30
2019-02-21T12:25:30.197Z,42.30
2019-02-21T12:27:59.882Z,38.90
2019-02-21T12:30:29.647Z,37.50
2019-02-21T12:32:59.458Z,39.03
2019-02-21T12:35:30.560Z,38.07
2019-02-21T12:38:00.253Z,35.57
2019-02-21T12:40:31.612Z,35.60
2019-02-21T12:43:15.012Z,36.27
2019-02-21T12:45:47.378Z,36.73
2019-02-21T12:48:17.248Z,35.88
2019-02-21T12:50:47.466Z,33.20
2019-02-21T12:53:17.166Z,36.38
2019-02-21T12:55:47.322Z,33.90
2019-02-21T12:58:17.871Z,33.67
2019-02-21T13:00:47.807Z,28.80
2019-02-21T13:03:17.753Z,27.50
2019-02-21T13:05:47.439Z,30.53
2019-02-21T13:08:17.361Z,28.42
2019-02-21T13:10:47.330Z,26.30
2019-02-21T13:13:17.075Z,36.93
2019-02-21T13:15:46.897Z,28.50
2019-02-21T13:18:16.632Z,28.95
2019-02-21T13:20:46.315Z,26.60
2019-02-21T13:23:16.289Z,29.73
2019-02-21T13:25:45.991Z,30.47
2019-02-21T13:28:15.722Z,27.23
2019-02-21T13:30:45.398Z,28.93
2019-02-21T13:33:15.088Z,29.92
2019-02-21T13:35:52.597Z,30.87
2019-02-21T13:38:16.558Z,30.47
2019-02-21T13:40:46.234Z,24.53
2019-02-21T13:43:18.445Z,29.77
2019-02-21T13:45:48.123Z,29.43
2019-02-21T13:48:19.162Z,29.10
2019-02-21T13:50:48.837Z,25.93
2019-02-21T13:53:18.511Z,24.43
2019-02-21T13:55:50.896Z,27.63
2019-02-21T13:58:19.869Z,26.40
2019-02-21T14:00:49.550Z,26.50
2019-02-21T14:03:19.233Z,27.43
2019-02-21T14:05:50.014Z,25.17
2019-02-21T14:08:19.718Z,29.47
2019-02-21T14:10:49.373Z,22.47
2019-02-21T14:13:19.212Z,24.20
2019-02-21T14:15:49.371Z,24.57
2019-02-21T14:18:19.045Z,26.03
2019-02-21T14:20:48.769Z,25.60
2019-02-21T14:23:18.461Z,30.15
2019-02-21T14:25:48.122Z,34.37
2019-02-21T14:28:18.370Z,32.05
2019-02-21T14:33:43.018Z,24.23
2019-02-21T14:36:16.853Z,22.60
2019-02-21T14:38:47.273Z,21.87
2019-02-21T14:41:17.977Z,24.27
2019-02-21T14:43:50.409Z,21.77
2019-02-21T14:46:20.471Z,20.67
2019-02-21T14:48:50.428Z,23.47
2019-02-21T14:51:20.267Z,21.33
2019-02-21T14:53:49.939Z,21.57
2019-02-21T14:56:20.188Z,19.23
2019-02-21T14:58:50.136Z,23.07
2019-02-21T15:01:19.798Z,21.07
2019-02-21T15:03:49.886Z,21.80
2019-02-21T15:06:27.180Z,22.05
2019-02-21T15:08:52.244Z,20.73
2019-02-21T15:11:21.929Z,26.87
2019-02-21T15:13:51.754Z,23.07
2019-02-21T15:16:21.434Z,22.93
2019-02-21T15:18:51.230Z,23.80
2019-02-21T15:21:21.085Z,20.43
2019-02-21T15:23:50.750Z,24.83
2019-02-21T15:26:20.457Z,23.37
2019-02-21T15:28:50.377Z,26.07
2019-02-21T15:31:20.426Z,25.47
2019-02-21T15:33:50.121Z,23.77
2019-02-21T15:36:19.806Z,27.90
2019-02-21T15:38:49.735Z,24.93
2019-02-21T15:41:19.398Z,29.37
2019-02-21T15:43:49.071Z,27.33
2019-02-21T15:46:19.030Z,27.13
2019-02-21T15:48:48.981Z,28.63
2019-02-21T15:51:18.755Z,28.83
2019-02-21T15:53:48.605Z,29.47
2019-02-21T15:56:18.295Z,29.83
2019-02-21T15:58:47.997Z,29.23
2019-02-21T16:01:17.947Z,33.03
2019-02-21T16:03:47.866Z,32.20
2019-02-21T16:06:17.545Z,30.23
2019-02-21T16:08:47.234Z,31.33
2019-02-21T16:11:16.902Z,32.83
2019-02-21T16:13:46.869Z,30.87
2019-02-21T16:16:17.776Z,30.50
2019-02-21T16:18:48.161Z,34.33
2019-02-21T16:21:17.860Z,36.90
2019-02-21T16:23:47.825Z,37.30
2019-02-21T16:26:17.499Z,34.35
2019-02-21T16:28:47.181Z,35.27
2019-02-21T16:31:16.858Z,35.27
2019-02-21T16:33:46.794Z,35.50
2019-02-21T16:36:16.491Z,35.68
2019-02-21T16:38:46.331Z,35.33
2019-02-21T16:41:16.588Z,35.37
2019-02-21T16:43:46.264Z,35.70
2019-02-21T16:46:16.025Z,34.75
2019-02-21T16:48:46.762Z,38.30
2019-02-21T16:51:16.479Z,39.20
2019-02-21T16:53:46.421Z,37.97
2019-02-21T16:56:16.231Z,34.90
2019-02-21T16:58:45.924Z,40.33
2019-02-21T17:01:15.631Z,38.17
2019-02-21T17:03:45.335Z,35.87
2019-02-21T17:06:15.172Z,42.13
2019-02-21T17:08:44.882Z,37.93
2019-02-21T17:11:14.675Z,36.40
2019-02-21T17:13:44.357Z,32.37
2019-02-21T17:16:14.067Z,31.00
2019-02-21T17:18:43.739Z,30.70
2019-02-21T17:21:14.235Z,35.43
2019-02-21T17:23:43.904Z,31.27
2019-02-21T17:26:13.646Z,31.60
2019-02-21T17:28:43.333Z,30.83
2019-02-21T17:31:13.036Z,27.85
2019-02-21T17:33:42.717Z,30.50
2019-02-21T17:36:13.517Z,29.77
2019-02-21T17:38:43.214Z,33.10
2019-02-21T17:41:12.918Z,40.70
2019-02-21T17:43:43.006Z,38.00
2019-02-21T17:46:13.231Z,44.70
2019-02-21T17:48:42.910Z,41.07
2019-02-21T17:51:12.592Z,48.43
2019-02-21T17:53:42.821Z,37.53
2019-02-21T17:56:12.567Z,41.30
2019-02-21T17:58:42.422Z,39.83
2019-02-21T18:01:12.187Z,42.83
2019-02-21T18:03:41.937Z,40.33
2019-02-21T18:06:11.773Z,40.73
2019-02-21T18:08:41.506Z,44.00
2019-02-21T18:11:12.646Z,41.02
2019-02-21T18:13:42.505Z,47.27
2019-02-21T18:16:12.406Z,47.03
2019-02-21T18:18:42.194Z,45.40
2019-02-21T18:21:11.870Z,44.18
2019-02-21T18:23:41.569Z,49.97
2019-02-21T18:26:18.872Z,52.98
2019-02-21T18:28:48.769Z,44.97
2019-02-21T18:31:23.846Z,56.70
2019-02-21T18:33:53.540Z,63.77
2019-02-21T18:36:23.490Z,59.80
2019-02-21T18:38:53.258Z,60.90
2019-02-21T18:41:22.938Z,71.20
2019-02-21T18:43:52.816Z,52.77
2019-02-21T18:46:22.506Z,65.50
2019-02-21T18:48:52.238Z,66.90
2019-02-21T18:51:22.056Z,66.75
2019-02-21T18:53:51.659Z,76.33
2019-02-21T18:56:21.484Z,73.43
2019-02-21T18:58:51.194Z,73.70
2019-02-21T19:01:20.887Z,69.95
2019-02-21T19:03:50.596Z,71.03
2019-02-21T19:06:20.282Z,71.77
2019-02-21T19:08:49.971Z,55.47
2019-02-21T19:11:19.717Z,54.67
2019-02-21T19:13:49.412Z,60.20
2019-02-21T19:16:19.233Z,48.33
2019-02-21T19:18:49.114Z,55.50
2019-02-21T19:21:19.105Z,65.40
2019-02-21T19:23:48.809Z,52.30
2019-02-21T19:26:18.596Z,52.57
2019-02-21T19:28:49.407Z,49.30
2019-02-21T19:31:19.866Z,50.83
2019-02-21T19:33:49.626Z,44.80
2019-02-21T19:36:19.446Z,47.05
2019-02-21T19:38:49.211Z,53.37
2019-02-21T19:41:19.062Z,39.75
2019-02-21T19:43:48.780Z,46.93
2019-02-21T19:46:18.696Z,42.80
2019-02-21T19:48:48.452Z,41.07
2019-02-21T19:51:18.168Z,47.27
2019-02-21T19:53:47.926Z,50.07
2019-02-21T19:56:17.658Z,43.50
2019-02-21T19:58:47.617Z,47.87
2019-02-21T20:01:18.606Z,43.45
2019-02-21T20:03:48.531Z,47.17
2019-02-21T20:06:18.218Z,46.27
2019-02-21T20:08:47.901Z,39.63
2019-02-21T20:11:17.592Z,50.20
2019-02-21T20:13:47.314Z,48.20
2019-02-21T20:16:17.071Z,48.93
2019-02-21T20:18:46.981Z,49.33
2019-02-21T20:21:16.750Z,53.97
2019-02-21T20:23:46.434Z,46.13
2019-02-21T20:26:18.595Z,62.70
2019-02-21T20:28:48.177Z,57.00
2019-02-21T20:31:17.870Z,51.57
2019-02-21T20:33:47.560Z,47.40
2019-02-21T20:36:17.602Z,46.88
2019-02-21T20:38:47.919Z,47.87
2019-02-21T20:41:17.607Z,47.93
2019-02-21T20:43:47.392Z,55.17
2019-02-21T20:46:17.074Z,45.97
2019-02-21T20:48:47.268Z,60.60
2019-02-21T20:51:17.126Z,56.80
2019-02-21T20:53:46.962Z,58.47
2019-02-21T20:56:16.638Z,58.48
2019-02-21T20:58:47.804Z,53.23
2019-02-21T21:01:17.741Z,48.25
2019-02-21T21:03:47.545Z,54.53
2019-02-21T21:06:17.271Z,46.90
2019-02-21T21:08:47.156Z,65.70
2019-02-21T21:11:16.847Z,53.00
2019-02-21T21:13:46.689Z,73.10
2019-02-21T21:16:16.368Z,43.02
2019-02-21T21:18:46.053Z,46.68
2019-02-21T21:21:15.917Z,37.93
2019-02-21T21:23:46.609Z,56.03
2019-02-21T21:26:16.568Z,48.75
2019-02-21T21:28:47.244Z,67.20
2019-02-21T21:31:16.929Z,51.75
2019-02-21T21:33:46.615Z,68.43
2019-02-21T21:36:16.293Z,64.07
2019-02-21T21:38:53.589Z,55.13
2019-02-21T21:41:17.742Z,60.70
2019-02-21T21:43:47.956Z,48.73
2019-02-21T21:46:17.651Z,54.40
2019-02-21T21:48:47.352Z,58.00
2019-02-21T21:51:17.103Z,60.67
2019-02-21T21:53:46.877Z,58.93
2019-02-21T21:56:16.553Z,68.05
2019-02-21T21:58:46.227Z,71.50
2019-02-21T22:01:15.995Z,63.05
2019-02-21T22:03:45.679Z,50.23
2019-02-21T22:06:15.491Z,60.97
2019-02-21T22:08:45.685Z,66.43
2019-02-21T22:11:15.550Z,65.08
2019-02-21T22:13:45.550Z,52.17
2019-02-21T22:16:15.254Z,53.50
2019-02-21T22:18:44.918Z,68.20
2019-02-21T22:21:15.645Z,69.00
2019-02-21T22:23:45.320Z,71.03
2019-02-21T22:26:15.290Z,69.47
2019-02-21T22:28:45.266Z,54.27
2019-02-21T22:31:15.511Z,64.83
2019-02-21T22:33:45.439Z,60.37
2019-02-21T22:36:15.149Z,50.07
2019-02-21T22:38:45.305Z,59.77
2019-02-21T22:41:15.029Z,82.88
2019-02-21T22:43:44.865Z,66.70
2019-02-21T22:46:14.558Z,59.47
2019-02-21T22:48:47.107Z,55.33
2019-02-21T22:51:15.725Z,55.05
2019-02-21T22:53:45.506Z,65.27
2019-02-21T22:56:15.268Z,63.10
2019-02-21T22:58:55.160Z,59.57
2019-02-21T23:01:34.352Z,71.83
2019-02-21T23:04:21.937Z,64.77
2019-02-21T23:07:18.377Z,74.47
2019-02-21T23:09:48.287Z,69.13
2019-02-21T23:12:18.025Z,61.33
2019-02-21T23:14:47.741Z,67.47
2019-02-21T23:17:17.481Z,72.95
2019-02-21T23:19:47.167Z,67.43
2019-02-21T23:22:16.929Z,73.73
2019-02-21T23:24:46.619Z,61.33
2019-02-21T23:27:16.400Z,83.40
2019-02-21T23:29:46.102Z,74.87
2019-02-21T23:32:16.468Z,64.50
2019-02-21T23:34:46.230Z,91.83
2019-02-21T23:37:15.922Z,82.83
2019-02-21T23:39:46.018Z,81.97
2019-02-21T23:42:15.803Z,85.70
2019-02-21T23:44:45.479Z,95.97
2019-02-21T23:47:15.470Z,62.43
2019-02-21T23:49:45.382Z,82.03
2019-02-21T23:52:15.066Z,65.40
2019-02-21T23:54:44.770Z,83.90
2019-02-21T23:57:14.697Z,89.20
2019-02-21T23:59:44.620Z,69.90
